sensor_id;sensor_type;location;lat;lon;timestamp;P1;durP1;ratioP1;P2;durP2;ratioP2
59442;SDS011;45247;47.466;19.004;2022-12-16T00:00:45;31.23;;;15.32;;
59442;SDS011;45247;47.466;19.004;2022-12-16T00:03:13;31.88;;;14.85;;
59442;SDS011;45247;47.466;19.004;2022-12-16T00:05:42;34.25;;;14.60;;
59442;SDS011;45247;47.466;19.004;2022-12-16T00:08:10;31.52;;;14.85;;
59442;SDS011;45247;47.466;19.004;2022-12-16T00:10:39;34.42;;;15.38;;
59442;SDS011;45247;47.466;19.004;2022-12-16T00:13:20;31.73;;;14.83;;
59442;SDS011;45247;47.466;19.004;2022-12-16T00:15:48;30.17;;;13.68;;
59442;SDS011;45247;47.466;19.004;2022-12-16T00:18:16;28.38;;;13.63;;
59442;SDS011;45247;47.466;19.004;2022-12-16T00:20:52;28.92;;;13.25;;
59442;SDS011;45247;47.466;19.004;2022-12-16T00:23:21;25.92;;;13.75;;
59442;SDS011;45247;47.466;19.004;2022-12-16T00:25:51;25.70;;;13.00;;
59442;SDS011;45247;47.466;19.004;2022-12-16T00:28:20;23.58;;;12.70;;
59442;SDS011;45247;47.466;19.004;2022-12-16T00:30:48;24.05;;;13.32;;
59442;SDS011;45247;47.466;19.004;2022-12-16T00:33:20;24.50;;;11.70;;
59442;SDS011;45247;47.466;19.004;2022-12-16T00:35:50;22.23;;;11.50;;
59442;SDS011;45247;47.466;19.004;2022-12-16T00:38:20;26.98;;;13.00;;
59442;SDS011;45247;47.466;19.004;2022-12-16T00:40:49;22.40;;;12.23;;
59442;SDS011;45247;47.466;19.004;2022-12-16T00:43:19;20.77;;;11.88;;
59442;SDS011;45247;47.466;19.004;2022-12-16T00:45:47;23.02;;;11.65;;
59442;SDS011;45247;47.466;19.004;2022-12-16T00:48:17;19.88;;;11.05;;
59442;SDS011;45247;47.466;19.004;2022-12-16T00:50:48;22.73;;;11.07;;
59442;SDS011;45247;47.466;19.004;2022-12-16T00:53:20;18.50;;;11.33;;
59442;SDS011;45247;47.466;19.004;2022-12-16T00:55:50;20.80;;;11.23;;
59442;SDS011;45247;47.466;19.004;2022-12-16T00:58:20;19.30;;;10.93;;
59442;SDS011;45247;47.466;19.004;2022-12-16T01:00:50;18.92;;;10.48;;
59442;SDS011;45247;47.466;19.004;2022-12-16T01:03:20;19.13;;;10.35;;
59442;SDS011;45247;47.466;19.004;2022-12-16T01:05:48;16.77;;;9.88;;
59442;SDS011;45247;47.466;19.004;2022-12-16T01:08:17;14.63;;;9.25;;
59442;SDS011;45247;47.466;19.004;2022-12-16T01:10:48;14.60;;;9.48;;
59442;SDS011;45247;47.466;19.004;2022-12-16T01:13:17;16.05;;;8.75;;
59442;SDS011;45247;47.466;19.004;2022-12-16T01:15:48;12.85;;;8.45;;
59442;SDS011;45247;47.466;19.004;2022-12-16T01:18:17;12.68;;;7.60;;
59442;SDS011;45247;47.466;19.004;2022-12-16T01:20:46;14.23;;;8.13;;
59442;SDS011;45247;47.466;19.004;2022-12-16T01:23:14;14.02;;;7.78;;
59442;SDS011;45247;47.466;19.004;2022-12-16T01:25:42;15.50;;;8.30;;
59442;SDS011;45247;47.466;19.004;2022-12-16T01:28:10;15.70;;;8.45;;
59442;SDS011;45247;47.466;19.004;2022-12-16T01:30:40;14.02;;;8.07;;
59442;SDS011;45247;47.466;19.004;2022-12-16T01:33:08;12.70;;;8.27;;
59442;SDS011;45247;47.466;19.004;2022-12-16T01:35:37;12.75;;;8.23;;
59442;SDS011;45247;47.466;19.004;2022-12-16T01:38:21;13.32;;;8.00;;
59442;SDS011;45247;47.466;19.004;2022-12-16T01:40:50;14.18;;;8.45;;
59442;SDS011;45247;47.466;19.004;2022-12-16T01:43:21;12.82;;;8.15;;
59442;SDS011;45247;47.466;19.004;2022-12-16T01:45:53;10.30;;;7.10;;
59442;SDS011;45247;47.466;19.004;2022-12-16T01:48:29;11.82;;;7.05;;
59442;SDS011;45247;47.466;19.004;2022-12-16T01:51:03;15.50;;;8.57;;
59442;SDS011;45247;47.466;19.004;2022-12-16T01:53:34;15.40;;;8.50;;
59442;SDS011;45247;47.466;19.004;2022-12-16T01:56:06;14.68;;;8.07;;
59442;SDS011;45247;47.466;19.004;2022-12-16T01:58:35;12.40;;;8.65;;
59442;SDS011;45247;47.466;19.004;2022-12-16T02:01:07;12.15;;;7.53;;
59442;SDS011;45247;47.466;19.004;2022-12-16T02:03:36;13.10;;;8.57;;
59442;SDS011;45247;47.466;19.004;2022-12-16T02:06:05;12.85;;;8.93;;
59442;SDS011;45247;47.466;19.004;2022-12-16T02:08:34;12.00;;;8.38;;
59442;SDS011;45247;47.466;19.004;2022-12-16T02:11:07;12.80;;;7.68;;
59442;SDS011;45247;47.466;19.004;2022-12-16T02:13:50;13.00;;;8.30;;
59442;SDS011;45247;47.466;19.004;2022-12-16T02:16:42;14.68;;;8.55;;
59442;SDS011;45247;47.466;19.004;2022-12-16T02:19:24;14.05;;;8.55;;
59442;SDS011;45247;47.466;19.004;2022-12-16T02:22:16;15.80;;;9.02;;
59442;SDS011;45247;47.466;19.004;2022-12-16T02:27:54;12.80;;;8.90;;
59442;SDS011;45247;47.466;19.004;2022-12-16T02:30:35;12.30;;;8.52;;
59442;SDS011;45247;47.466;19.004;2022-12-16T02:36:24;11.35;;;7.90;;
59442;SDS011;45247;47.466;19.004;2022-12-16T02:39:03;13.88;;;9.55;;
59442;SDS011;45247;47.466;19.004;2022-12-16T02:41:39;14.93;;;9.10;;
59442;SDS011;45247;47.466;19.004;2022-12-16T02:44:10;12.88;;;8.93;;
59442;SDS011;45247;47.466;19.004;2022-12-16T02:46:46;16.58;;;10.27;;
59442;SDS011;45247;47.466;19.004;2022-12-16T02:52:22;13.05;;;9.00;;
59442;SDS011;45247;47.466;19.004;2022-12-16T02:54:54;13.73;;;8.70;;
59442;SDS011;45247;47.466;19.004;2022-12-16T03:00:17;14.37;;;10.13;;
59442;SDS011;45247;47.466;19.004;2022-12-16T03:02:51;15.32;;;9.68;;
59442;SDS011;45247;47.466;19.004;2022-12-16T03:05:24;13.23;;;9.80;;
59442;SDS011;45247;47.466;19.004;2022-12-16T03:07:57;14.85;;;9.55;;
59442;SDS011;45247;47.466;19.004;2022-12-16T03:10:29;16.17;;;9.40;;
59442;SDS011;45247;47.466;19.004;2022-12-16T03:13:02;16.55;;;10.35;;
59442;SDS011;45247;47.466;19.004;2022-12-16T03:15:35;13.40;;;9.88;;
59442;SDS011;45247;47.466;19.004;2022-12-16T03:18:07;15.50;;;10.20;;
59442;SDS011;45247;47.466;19.004;2022-12-16T03:20:38;14.03;;;9.40;;
59442;SDS011;45247;47.466;19.004;2022-12-16T03:23:27;14.93;;;10.52;;
59442;SDS011;45247;47.466;19.004;2022-12-16T03:26:02;14.90;;;9.45;;
59442;SDS011;45247;47.466;19.004;2022-12-16T03:28:38;16.02;;;9.60;;
59442;SDS011;45247;47.466;19.004;2022-12-16T03:31:13;14.32;;;8.90;;
59442;SDS011;45247;47.466;19.004;2022-12-16T03:33:50;15.52;;;9.95;;
59442;SDS011;45247;47.466;19.004;2022-12-16T03:36:24;11.77;;;8.95;;
59442;SDS011;45247;47.466;19.004;2022-12-16T03:38:56;13.48;;;8.25;;
59442;SDS011;45247;47.466;19.004;2022-12-16T03:41:26;11.10;;;8.15;;
59442;SDS011;45247;47.466;19.004;2022-12-16T03:43:56;12.35;;;8.18;;
59442;SDS011;45247;47.466;19.004;2022-12-16T03:46:25;13.88;;;9.57;;
59442;SDS011;45247;47.466;19.004;2022-12-16T03:48:55;11.27;;;8.23;;
59442;SDS011;45247;47.466;19.004;2022-12-16T03:51:23;12.52;;;7.78;;
59442;SDS011;45247;47.466;19.004;2022-12-16T03:53:51;13.05;;;9.02;;
59442;SDS011;45247;47.466;19.004;2022-12-16T03:56:19;12.63;;;8.05;;
59442;SDS011;45247;47.466;19.004;2022-12-16T03:58:47;13.30;;;8.52;;
59442;SDS011;45247;47.466;19.004;2022-12-16T04:01:15;11.35;;;6.88;;
59442;SDS011;45247;47.466;19.004;2022-12-16T04:03:43;11.85;;;7.18;;
59442;SDS011;45247;47.466;19.004;2022-12-16T04:06:13;12.90;;;7.65;;
59442;SDS011;45247;47.466;19.004;2022-12-16T04:08:44;11.77;;;8.07;;
59442;SDS011;45247;47.466;19.004;2022-12-16T04:11:13;12.32;;;8.68;;
59442;SDS011;45247;47.466;19.004;2022-12-16T04:13:59;10.98;;;7.97;;
59442;SDS011;45247;47.466;19.004;2022-12-16T04:16:44;13.10;;;8.45;;
59442;SDS011;45247;47.466;19.004;2022-12-16T04:19:31;12.32;;;8.27;;
59442;SDS011;45247;47.466;19.004;2022-12-16T04:22:22;12.48;;;8.25;;
59442;SDS011;45247;47.466;19.004;2022-12-16T04:25:11;13.38;;;7.90;;
59442;SDS011;45247;47.466;19.004;2022-12-16T04:27:42;12.80;;;8.38;;
59442;SDS011;45247;47.466;19.004;2022-12-16T04:30:12;11.77;;;7.68;;
59442;SDS011;45247;47.466;19.004;2022-12-16T04:32:48;14.60;;;9.32;;
59442;SDS011;45247;47.466;19.004;2022-12-16T04:35:37;13.40;;;9.77;;
59442;SDS011;45247;47.466;19.004;2022-12-16T04:38:25;14.93;;;9.18;;
59442;SDS011;45247;47.466;19.004;2022-12-16T04:41:11;16.02;;;10.32;;
59442;SDS011;45247;47.466;19.004;2022-12-16T04:43:57;17.10;;;11.35;;
59442;SDS011;45247;47.466;19.004;2022-12-16T04:46:42;16.92;;;10.05;;
59442;SDS011;45247;47.466;19.004;2022-12-16T04:49:28;17.60;;;11.05;;
59442;SDS011;45247;47.466;19.004;2022-12-16T04:52:14;18.75;;;12.00;;
59442;SDS011;45247;47.466;19.004;2022-12-16T04:55:01;19.75;;;11.85;;
59442;SDS011;45247;47.466;19.004;2022-12-16T04:57:47;19.77;;;11.50;;
59442;SDS011;45247;47.466;19.004;2022-12-16T05:00:35;20.33;;;12.60;;
59442;SDS011;45247;47.466;19.004;2022-12-16T05:03:21;22.38;;;13.10;;
59442;SDS011;45247;47.466;19.004;2022-12-16T05:06:07;22.35;;;12.25;;
59442;SDS011;45247;47.466;19.004;2022-12-16T05:08:52;26.73;;;13.95;;
59442;SDS011;45247;47.466;19.004;2022-12-16T05:11:39;23.85;;;13.52;;
59442;SDS011;45247;47.466;19.004;2022-12-16T05:14:25;26.05;;;13.65;;
59442;SDS011;45247;47.466;19.004;2022-12-16T05:17:11;23.63;;;14.07;;
59442;SDS011;45247;47.466;19.004;2022-12-16T05:19:57;27.70;;;14.43;;
59442;SDS011;45247;47.466;19.004;2022-12-16T05:22:42;22.23;;;12.95;;
59442;SDS011;45247;47.466;19.004;2022-12-16T05:25:28;21.25;;;13.00;;
59442;SDS011;45247;47.466;19.004;2022-12-16T05:28:15;20.30;;;12.35;;
59442;SDS011;45247;47.466;19.004;2022-12-16T05:31:00;22.73;;;13.10;;
59442;SDS011;45247;47.466;19.004;2022-12-16T05:33:46;23.90;;;13.32;;
59442;SDS011;45247;47.466;19.004;2022-12-16T05:36:32;20.65;;;12.73;;
59442;SDS011;45247;47.466;19.004;2022-12-16T05:39:17;21.70;;;12.25;;
59442;SDS011;45247;47.466;19.004;2022-12-16T05:42:03;19.88;;;12.32;;
59442;SDS011;45247;47.466;19.004;2022-12-16T05:44:50;23.40;;;13.25;;
59442;SDS011;45247;47.466;19.004;2022-12-16T05:47:35;22.13;;;13.00;;
59442;SDS011;45247;47.466;19.004;2022-12-16T05:50:21;25.35;;;14.32;;
59442;SDS011;45247;47.466;19.004;2022-12-16T05:53:07;25.42;;;13.50;;
59442;SDS011;45247;47.466;19.004;2022-12-16T05:55:53;24.17;;;13.35;;
59442;SDS011;45247;47.466;19.004;2022-12-16T05:58:38;27.77;;;14.77;;
59442;SDS011;45247;47.466;19.004;2022-12-16T06:01:24;26.33;;;14.52;;
59442;SDS011;45247;47.466;19.004;2022-12-16T06:04:10;27.23;;;15.57;;
59442;SDS011;45247;47.466;19.004;2022-12-16T06:06:56;28.40;;;15.70;;
59442;SDS011;45247;47.466;19.004;2022-12-16T06:09:41;26.73;;;15.85;;
59442;SDS011;45247;47.466;19.004;2022-12-16T06:12:27;26.67;;;15.55;;
59442;SDS011;45247;47.466;19.004;2022-12-16T06:15:12;31.95;;;16.90;;
59442;SDS011;45247;47.466;19.004;2022-12-16T06:17:59;31.60;;;16.58;;
59442;SDS011;45247;47.466;19.004;2022-12-16T06:20:59;32.35;;;17.50;;
59442;SDS011;45247;47.466;19.004;2022-12-16T06:23:45;30.73;;;17.48;;
59442;SDS011;45247;47.466;19.004;2022-12-16T06:26:30;35.47;;;19.35;;
59442;SDS011;45247;47.466;19.004;2022-12-16T06:29:16;35.38;;;18.80;;
59442;SDS011;45247;47.466;19.004;2022-12-16T06:32:01;34.85;;;18.30;;
59442;SDS011;45247;47.466;19.004;2022-12-16T06:34:50;35.05;;;19.77;;
59442;SDS011;45247;47.466;19.004;2022-12-16T06:37:36;33.17;;;19.13;;
59442;SDS011;45247;47.466;19.004;2022-12-16T06:40:21;32.45;;;18.65;;
59442;SDS011;45247;47.466;19.004;2022-12-16T06:43:07;37.40;;;19.85;;
59442;SDS011;45247;47.466;19.004;2022-12-16T06:45:52;36.00;;;19.25;;
59442;SDS011;45247;47.466;19.004;2022-12-16T06:48:38;34.70;;;19.00;;
59442;SDS011;45247;47.466;19.004;2022-12-16T06:51:25;37.25;;;18.83;;
59442;SDS011;45247;47.466;19.004;2022-12-16T06:54:10;34.53;;;18.65;;
59442;SDS011;45247;47.466;19.004;2022-12-16T06:56:56;36.35;;;19.42;;
59442;SDS011;45247;47.466;19.004;2022-12-16T06:59:42;34.33;;;20.45;;
59442;SDS011;45247;47.466;19.004;2022-12-16T07:02:27;36.63;;;19.73;;
59442;SDS011;45247;47.466;19.004;2022-12-16T07:05:13;41.60;;;20.10;;
59442;SDS011;45247;47.466;19.004;2022-12-16T07:07:59;36.58;;;18.55;;
59442;SDS011;45247;47.466;19.004;2022-12-16T07:10:45;41.13;;;23.83;;
59442;SDS011;45247;47.466;19.004;2022-12-16T07:13:42;39.28;;;19.33;;
59442;SDS011;45247;47.466;19.004;2022-12-16T07:16:27;39.97;;;21.23;;
59442;SDS011;45247;47.466;19.004;2022-12-16T07:19:13;37.80;;;20.02;;
59442;SDS011;45247;47.466;19.004;2022-12-16T07:22:00;40.83;;;21.15;;
59442;SDS011;45247;47.466;19.004;2022-12-16T07:24:47;40.45;;;20.85;;
59442;SDS011;45247;47.466;19.004;2022-12-16T07:27:32;45.35;;;22.15;;
59442;SDS011;45247;47.466;19.004;2022-12-16T07:30:18;38.25;;;20.50;;
59442;SDS011;45247;47.466;19.004;2022-12-16T07:33:03;38.53;;;20.45;;
59442;SDS011;45247;47.466;19.004;2022-12-16T07:35:49;37.17;;;19.65;;
59442;SDS011;45247;47.466;19.004;2022-12-16T07:38:34;43.30;;;21.30;;
59442;SDS011;45247;47.466;19.004;2022-12-16T07:41:21;39.75;;;21.38;;
59442;SDS011;45247;47.466;19.004;2022-12-16T07:44:07;44.28;;;21.50;;
59442;SDS011;45247;47.466;19.004;2022-12-16T07:46:52;41.20;;;20.63;;
59442;SDS011;45247;47.466;19.004;2022-12-16T07:49:38;41.83;;;20.88;;
59442;SDS011;45247;47.466;19.004;2022-12-16T07:52:23;43.55;;;22.83;;
59442;SDS011;45247;47.466;19.004;2022-12-16T07:55:09;42.33;;;22.08;;
59442;SDS011;45247;47.466;19.004;2022-12-16T07:57:55;44.97;;;23.52;;
59442;SDS011;45247;47.466;19.004;2022-12-16T08:00:46;49.22;;;24.48;;
59442;SDS011;45247;47.466;19.004;2022-12-16T08:03:35;58.38;;;25.77;;
59442;SDS011;45247;47.466;19.004;2022-12-16T08:06:21;48.40;;;24.10;;
59442;SDS011;45247;47.466;19.004;2022-12-16T08:09:15;49.22;;;24.55;;
59442;SDS011;45247;47.466;19.004;2022-12-16T08:12:00;46.03;;;22.65;;
59442;SDS011;45247;47.466;19.004;2022-12-16T08:14:47;48.80;;;25.13;;
59442;SDS011;45247;47.466;19.004;2022-12-16T08:17:34;51.90;;;24.67;;
59442;SDS011;45247;47.466;19.004;2022-12-16T08:20:20;46.78;;;25.10;;
59442;SDS011;45247;47.466;19.004;2022-12-16T08:23:06;50.13;;;24.23;;
59442;SDS011;45247;47.466;19.004;2022-12-16T08:25:52;49.65;;;23.55;;
59442;SDS011;45247;47.466;19.004;2022-12-16T08:28:37;51.22;;;25.38;;
59442;SDS011;45247;47.466;19.004;2022-12-16T08:31:40;47.97;;;24.98;;
59442;SDS011;45247;47.466;19.004;2022-12-16T08:34:25;47.67;;;24.98;;
59442;SDS011;45247;47.466;19.004;2022-12-16T08:37:11;41.13;;;22.13;;
59442;SDS011;45247;47.466;19.004;2022-12-16T08:39:57;48.40;;;25.40;;
59442;SDS011;45247;47.466;19.004;2022-12-16T08:43:01;49.47;;;24.08;;
59442;SDS011;45247;47.466;19.004;2022-12-16T08:45:46;45.90;;;24.10;;
59442;SDS011;45247;47.466;19.004;2022-12-16T08:48:33;53.35;;;25.60;;
59442;SDS011;45247;47.466;19.004;2022-12-16T08:51:21;48.60;;;25.25;;
59442;SDS011;45247;47.466;19.004;2022-12-16T08:54:07;53.78;;;26.52;;
59442;SDS011;45247;47.466;19.004;2022-12-16T08:56:52;55.67;;;26.95;;
59442;SDS011;45247;47.466;19.004;2022-12-16T08:59:38;52.00;;;26.95;;
59442;SDS011;45247;47.466;19.004;2022-12-16T09:02:23;55.75;;;28.13;;
59442;SDS011;45247;47.466;19.004;2022-12-16T09:05:10;55.13;;;27.50;;
59442;SDS011;45247;47.466;19.004;2022-12-16T09:07:57;61.50;;;30.05;;
59442;SDS011;45247;47.466;19.004;2022-12-16T09:10:43;58.20;;;28.63;;
59442;SDS011;45247;47.466;19.004;2022-12-16T09:13:29;60.97;;;30.10;;
59442;SDS011;45247;47.466;19.004;2022-12-16T09:16:15;60.22;;;29.75;;
59442;SDS011;45247;47.466;19.004;2022-12-16T09:19:03;55.45;;;29.63;;
59442;SDS011;45247;47.466;19.004;2022-12-16T09:21:50;57.15;;;28.45;;
59442;SDS011;45247;47.466;19.004;2022-12-16T09:24:36;56.65;;;27.67;;
59442;SDS011;45247;47.466;19.004;2022-12-16T09:27:21;58.15;;;28.60;;
59442;SDS011;45247;47.466;19.004;2022-12-16T09:30:07;57.47;;;27.30;;
59442;SDS011;45247;47.466;19.004;2022-12-16T09:32:53;57.30;;;28.80;;
59442;SDS011;45247;47.466;19.004;2022-12-16T09:35:39;55.83;;;28.10;;
59442;SDS011;45247;47.466;19.004;2022-12-16T09:38:26;56.72;;;29.95;;
59442;SDS011;45247;47.466;19.004;2022-12-16T09:41:19;57.95;;;28.80;;
59442;SDS011;45247;47.466;19.004;2022-12-16T09:44:14;52.40;;;28.38;;
59442;SDS011;45247;47.466;19.004;2022-12-16T09:47:08;52.33;;;26.95;;
59442;SDS011;45247;47.466;19.004;2022-12-16T09:50:03;64.38;;;29.88;;
59442;SDS011;45247;47.466;19.004;2022-12-16T09:52:51;56.90;;;28.75;;
59442;SDS011;45247;47.466;19.004;2022-12-16T09:55:44;63.55;;;32.50;;
59442;SDS011;45247;47.466;19.004;2022-12-16T09:58:32;59.83;;;31.85;;
59442;SDS011;45247;47.466;19.004;2022-12-16T10:01:23;69.07;;;34.08;;
59442;SDS011;45247;47.466;19.004;2022-12-16T10:04:10;62.25;;;30.67;;
59442;SDS011;45247;47.466;19.004;2022-12-16T10:06:57;65.18;;;33.25;;
59442;SDS011;45247;47.466;19.004;2022-12-16T10:09:45;58.50;;;30.60;;
59442;SDS011;45247;47.466;19.004;2022-12-16T10:12:41;69.05;;;34.83;;
59442;SDS011;45247;47.466;19.004;2022-12-16T10:15:33;71.00;;;34.00;;
59442;SDS011;45247;47.466;19.004;2022-12-16T10:18:28;67.13;;;30.83;;
59442;SDS011;45247;47.466;19.004;2022-12-16T10:21:24;76.18;;;34.15;;
59442;SDS011;45247;47.466;19.004;2022-12-16T10:24:17;76.65;;;34.80;;
59442;SDS011;45247;47.466;19.004;2022-12-16T10:27:12;80.22;;;34.35;;
59442;SDS011;45247;47.466;19.004;2022-12-16T10:30:00;79.97;;;36.42;;
59442;SDS011;45247;47.466;19.004;2022-12-16T10:32:51;74.25;;;35.03;;
59442;SDS011;45247;47.466;19.004;2022-12-16T10:35:36;74.60;;;33.85;;
59442;SDS011;45247;47.466;19.004;2022-12-16T10:38:29;78.75;;;35.38;;
59442;SDS011;45247;47.466;19.004;2022-12-16T10:41:20;76.00;;;34.05;;
59442;SDS011;45247;47.466;19.004;2022-12-16T10:44:15;79.07;;;32.53;;
59442;SDS011;45247;47.466;19.004;2022-12-16T10:47:09;70.68;;;33.17;;
59442;SDS011;45247;47.466;19.004;2022-12-16T10:49:55;75.10;;;32.70;;
59442;SDS011;45247;47.466;19.004;2022-12-16T10:52:48;75.03;;;31.65;;
59442;SDS011;45247;47.466;19.004;2022-12-16T10:55:42;78.85;;;32.05;;
59442;SDS011;45247;47.466;19.004;2022-12-16T10:58:41;68.15;;;30.13;;
59442;SDS011;45247;47.466;19.004;2022-12-16T11:01:30;74.25;;;34.25;;
59442;SDS011;45247;47.466;19.004;2022-12-16T11:04:31;69.38;;;33.08;;
59442;SDS011;45247;47.466;19.004;2022-12-16T11:07:24;66.30;;;30.67;;
59442;SDS011;45247;47.466;19.004;2022-12-16T11:10:27;66.57;;;31.17;;
59442;SDS011;45247;47.466;19.004;2022-12-16T11:13:19;58.70;;;30.20;;
59442;SDS011;45247;47.466;19.004;2022-12-16T11:16:11;66.88;;;32.88;;
59442;SDS011;45247;47.466;19.004;2022-12-16T11:18:59;75.05;;;31.92;;
59442;SDS011;45247;47.466;19.004;2022-12-16T11:21:47;71.53;;;33.90;;
59442;SDS011;45247;47.466;19.004;2022-12-16T11:24:32;65.85;;;31.20;;
59442;SDS011;45247;47.466;19.004;2022-12-16T11:27:22;64.65;;;30.25;;
59442;SDS011;45247;47.466;19.004;2022-12-16T11:30:15;74.30;;;31.65;;
59442;SDS011;45247;47.466;19.004;2022-12-16T11:33:05;64.97;;;30.92;;
59442;SDS011;45247;47.466;19.004;2022-12-16T11:36:03;74.30;;;29.95;;
59442;SDS011;45247;47.466;19.004;2022-12-16T11:38:52;69.25;;;32.10;;
59442;SDS011;45247;47.466;19.004;2022-12-16T11:41:39;65.25;;;30.63;;
59442;SDS011;45247;47.466;19.004;2022-12-16T11:44:27;66.30;;;30.63;;
59442;SDS011;45247;47.466;19.004;2022-12-16T11:47:15;73.20;;;32.80;;
59442;SDS011;45247;47.466;19.004;2022-12-16T11:50:07;76.28;;;30.73;;
59442;SDS011;45247;47.466;19.004;2022-12-16T11:52:57;75.32;;;29.95;;
59442;SDS011;45247;47.466;19.004;2022-12-16T11:55:46;71.40;;;29.85;;
59442;SDS011;45247;47.466;19.004;2022-12-16T11:58:42;84.30;;;29.92;;
59442;SDS011;45247;47.466;19.004;2022-12-16T12:01:31;72.57;;;29.33;;
59442;SDS011;45247;47.466;19.004;2022-12-16T12:04:20;81.57;;;30.40;;
59442;SDS011;45247;47.466;19.004;2022-12-16T12:07:17;79.55;;;30.48;;
59442;SDS011;45247;47.466;19.004;2022-12-16T12:13:33;79.28;;;29.15;;
59442;SDS011;45247;47.466;19.004;2022-12-16T12:16:29;85.43;;;31.00;;
59442;SDS011;45247;47.466;19.004;2022-12-16T12:19:25;76.85;;;29.52;;
59442;SDS011;45247;47.466;19.004;2022-12-16T12:22:19;69.22;;;29.38;;
59442;SDS011;45247;47.466;19.004;2022-12-16T12:25:18;67.63;;;25.33;;
59442;SDS011;45247;47.466;19.004;2022-12-16T12:28:09;48.90;;;20.33;;
59442;SDS011;45247;47.466;19.004;2022-12-16T12:31:15;58.58;;;24.60;;
59442;SDS011;45247;47.466;19.004;2022-12-16T12:34:13;54.20;;;23.35;;
59442;SDS011;45247;47.466;19.004;2022-12-16T12:37:07;45.33;;;19.58;;
59442;SDS011;45247;47.466;19.004;2022-12-16T12:40:17;47.42;;;21.73;;
59442;SDS011;45247;47.466;19.004;2022-12-16T12:43:13;53.17;;;24.38;;
59442;SDS011;45247;47.466;19.004;2022-12-16T12:46:10;57.03;;;26.48;;
59442;SDS011;45247;47.466;19.004;2022-12-16T12:49:08;62.72;;;27.65;;
59442;SDS011;45247;47.466;19.004;2022-12-16T12:52:02;71.00;;;31.80;;
59442;SDS011;45247;47.466;19.004;2022-12-16T12:55:09;68.07;;;29.23;;
59442;SDS011;45247;47.466;19.004;2022-12-16T12:58:06;66.07;;;31.13;;
59442;SDS011;45247;47.466;19.004;2022-12-16T13:00:54;65.65;;;29.58;;
59442;SDS011;45247;47.466;19.004;2022-12-16T13:03:46;67.90;;;29.98;;
59442;SDS011;45247;47.466;19.004;2022-12-16T13:06:37;66.78;;;31.75;;
59442;SDS011;45247;47.466;19.004;2022-12-16T13:12:23;74.68;;;33.53;;
59442;SDS011;45247;47.466;19.004;2022-12-16T13:15:18;68.38;;;31.13;;
59442;SDS011;45247;47.466;19.004;2022-12-16T13:18:26;67.65;;;30.27;;
59442;SDS011;45247;47.466;19.004;2022-12-16T13:24:34;64.75;;;29.60;;
59442;SDS011;45247;47.466;19.004;2022-12-16T13:27:44;58.47;;;28.77;;
59442;SDS011;45247;47.466;19.004;2022-12-16T13:30:34;68.00;;;29.63;;
59442;SDS011;45247;47.466;19.004;2022-12-16T13:33:30;71.78;;;30.92;;
59442;SDS011;45247;47.466;19.004;2022-12-16T13:36:16;75.85;;;33.83;;
59442;SDS011;45247;47.466;19.004;2022-12-16T13:39:21;74.80;;;33.53;;
59442;SDS011;45247;47.466;19.004;2022-12-16T13:45:31;66.20;;;30.55;;
59442;SDS011;45247;47.466;19.004;2022-12-16T13:48:30;60.13;;;30.73;;
59442;SDS011;45247;47.466;19.004;2022-12-16T13:54:58;76.90;;;33.40;;
59442;SDS011;45247;47.466;19.004;2022-12-16T13:57:51;83.22;;;35.20;;
59442;SDS011;45247;47.466;19.004;2022-12-16T14:00:41;76.68;;;34.83;;
59442;SDS011;45247;47.466;19.004;2022-12-16T14:03:32;68.45;;;31.23;;
59442;SDS011;45247;47.466;19.004;2022-12-16T14:06:25;44.42;;;22.02;;
59442;SDS011;45247;47.466;19.004;2022-12-16T14:09:18;26.15;;;14.00;;
59442;SDS011;45247;47.466;19.004;2022-12-16T14:12:14;21.30;;;11.10;;
59442;SDS011;45247;47.466;19.004;2022-12-16T14:15:14;17.85;;;10.82;;
59442;SDS011;45247;47.466;19.004;2022-12-16T14:21:10;16.92;;;9.05;;
59442;SDS011;45247;47.466;19.004;2022-12-16T14:24:01;15.85;;;9.27;;
59442;SDS011;45247;47.466;19.004;2022-12-16T14:26:54;14.88;;;9.43;;
59442;SDS011;45247;47.466;19.004;2022-12-16T14:29:42;13.32;;;8.32;;
59442;SDS011;45247;47.466;19.004;2022-12-16T14:32:28;11.45;;;7.93;;
59442;SDS011;45247;47.466;19.004;2022-12-16T14:35:16;13.48;;;8.45;;
59442;SDS011;45247;47.466;19.004;2022-12-16T14:38:19;12.80;;;8.90;;
59442;SDS011;45247;47.466;19.004;2022-12-16T14:41:09;17.17;;;9.95;;
59442;SDS011;45247;47.466;19.004;2022-12-16T14:43:56;18.10;;;10.48;;
59442;SDS011;45247;47.466;19.004;2022-12-16T14:46:43;17.48;;;9.80;;
59442;SDS011;45247;47.466;19.004;2022-12-16T14:49:33;17.30;;;10.18;;
59442;SDS011;45247;47.466;19.004;2022-12-16T14:52:19;20.83;;;11.57;;
59442;SDS011;45247;47.466;19.004;2022-12-16T14:55:09;20.58;;;11.40;;
59442;SDS011;45247;47.466;19.004;2022-12-16T14:58:00;21.98;;;11.52;;
59442;SDS011;45247;47.466;19.004;2022-12-16T15:00:48;23.50;;;12.93;;
59442;SDS011;45247;47.466;19.004;2022-12-16T15:03:42;19.70;;;12.52;;
59442;SDS011;45247;47.466;19.004;2022-12-16T15:06:31;25.92;;;15.63;;
59442;SDS011;45247;47.466;19.004;2022-12-16T15:09:26;30.77;;;15.65;;
59442;SDS011;45247;47.466;19.004;2022-12-16T15:12:14;24.42;;;15.07;;
59442;SDS011;45247;47.466;19.004;2022-12-16T15:15:03;23.10;;;14.68;;
59442;SDS011;45247;47.466;19.004;2022-12-16T15:17:53;25.25;;;14.50;;
59442;SDS011;45247;47.466;19.004;2022-12-16T15:20:43;21.70;;;12.88;;
59442;SDS011;45247;47.466;19.004;2022-12-16T15:23:37;25.05;;;13.25;;
59442;SDS011;45247;47.466;19.004;2022-12-16T15:26:25;25.77;;;14.13;;
59442;SDS011;45247;47.466;19.004;2022-12-16T15:29:25;23.45;;;12.43;;
59442;SDS011;45247;47.466;19.004;2022-12-16T15:32:27;24.33;;;14.30;;
59442;SDS011;45247;47.466;19.004;2022-12-16T15:35:23;21.58;;;12.30;;
59442;SDS011;45247;47.466;19.004;2022-12-16T15:38:15;24.08;;;14.38;;
59442;SDS011;45247;47.466;19.004;2022-12-16T15:41:05;23.30;;;13.30;;
59442;SDS011;45247;47.466;19.004;2022-12-16T15:44:01;21.20;;;13.50;;
59442;SDS011;45247;47.466;19.004;2022-12-16T15:46:47;23.75;;;13.98;;
59442;SDS011;45247;47.466;19.004;2022-12-16T15:49:34;28.08;;;14.50;;
59442;SDS011;45247;47.466;19.004;2022-12-16T15:52:32;25.15;;;14.35;;
59442;SDS011;45247;47.466;19.004;2022-12-16T15:55:24;25.00;;;14.43;;
59442;SDS011;45247;47.466;19.004;2022-12-16T16:00:59;25.73;;;14.55;;
59442;SDS011;45247;47.466;19.004;2022-12-16T16:03:49;26.00;;;13.52;;
59442;SDS011;45247;47.466;19.004;2022-12-16T16:06:36;28.92;;;15.45;;
59442;SDS011;45247;47.466;19.004;2022-12-16T16:09:23;29.77;;;16.63;;
59442;SDS011;45247;47.466;19.004;2022-12-16T16:12:13;35.30;;;17.73;;
59442;SDS011;45247;47.466;19.004;2022-12-16T16:14:59;36.58;;;17.83;;
59442;SDS011;45247;47.466;19.004;2022-12-16T16:17:45;33.35;;;17.83;;
59442;SDS011;45247;47.466;19.004;2022-12-16T16:20:32;37.35;;;19.50;;
59442;SDS011;45247;47.466;19.004;2022-12-16T16:23:17;33.63;;;18.13;;
59442;SDS011;45247;47.466;19.004;2022-12-16T16:26:03;32.45;;;18.00;;